Time;durP1;ratioP1;P1;durP2;ratioP2;P2;SDS_P1;SDS_P2;PMS_P1;PMS_P2;Temp;Humidity;BMP_temperature;BMP_pressure;BME280_temperature;BME280_humidity;BME280_pressure;Samples;Min_cycle;Max_cycle;Signal;HPM_P1;HPM_P2
2021/07/10 00:02:19;;;;;;;12.23;5.63;;;;;;;25.49;57.27;101337.88;5121035;27;20186;-62
2021/07/10 00:04:46;;;;;;;12.43;5.00;;;;;;;25.56;56.63;101348.72;5111943;28;20717;-62
2021/07/10 00:07:13;;;;;;;12.23;4.67;;;;;;;25.62;56.23;101362.91;5110080;28;20174;-62
2021/07/10 00:09:38;;;;;;;14.23;5.13;;;;;;;25.67;57.13;101365.72;5111260;28;20261;-62
2021/07/10 00:12:05;;;;;;;7.23;4.97;;;;;;;25.67;56.96;101371.41;5119428;27;20252;-63
2021/07/10 00:14:30;;;;;;;8.17;5.13;;;;;;;25.61;56.40;101372.72;5131475;27;20181;-62
2021/07/10 00:16:56;;;;;;;7.73;5.20;;;;;;;25.54;55.89;101371.16;5112481;27;20178;-62
2021/07/10 00:19:23;;;;;;;7.50;4.97;;;;;;;25.42;56.04;101375.31;5111239;28;20261;-62
2021/07/10 00:21:48;;;;;;;11.60;5.43;;;;;;;25.18;56.39;101380.69;5105644;28;20658;-62
2021/07/10 00:24:14;;;;;;;11.07;5.40;;;;;;;24.87;57.15;101389.44;5099509;28;20181;-61
2021/07/10 00:26:39;;;;;;;9.23;5.50;;;;;;;24.71;57.37;101387.34;5097203;28;20183;-62
2021/07/10 00:29:05;;;;;;;9.77;5.37;;;;;;;24.09;57.78;101314.00;5090502;28;20182;-62
2021/07/10 00:31:31;;;;;;;9.20;6.10;;;;;;;24.29;58.03;101352.66;5093905;28;20167;-62
2021/07/10 00:33:56;;;;;;;8.67;5.47;;;;;;;24.39;58.32;101380.28;5110236;28;20612;-62
2021/07/10 00:36:22;;;;;;;9.37;5.60;;;;;;;24.34;58.22;101380.25;5095761;28;20233;-62
2021/07/10 00:38:47;;;;;;;11.53;5.27;;;;;;;23.81;58.23;101315.13;5105047;28;20178;-62
2021/07/10 00:41:13;;;;;;;8.47;5.40;;;;;;;24.20;58.69;101382.00;5110327;28;20201;-61
2021/07/10 00:43:38;;;;;;;10.37;5.47;;;;;;;23.99;58.66;101355.13;5095229;28;20177;-62
2021/07/10 00:46:06;;;;;;;9.73;5.20;;;;;;;23.43;59.12;101276.84;5090797;28;20557;-62
2021/07/10 00:48:32;;;;;;;8.53;5.57;;;;;;;23.97;59.77;101373.91;5107867;28;20200;-61
2021/07/10 00:50:57;;;;;;;12.40;5.43;;;;;;;23.94;59.64;101369.25;5092748;28;20648;-61
2021/07/10 00:53:23;;;;;;;10.60;5.67;;;;;;;23.96;59.73;101358.97;5090753;28;20175;-62
2021/07/10 00:55:48;;;;;;;12.00;5.60;;;;;;;23.93;59.82;101353.56;5090172;28;20182;-61
2021/07/10 00:58:14;;;;;;;12.03;5.20;;;;;;;23.93;59.89;101350.72;5090612;28;20183;-61
2021/07/10 01:00:41;;;;;;;10.87;5.43;;;;;;;24.02;59.54;101364.66;5100666;28;20560;-62
2021/07/10 01:03:07;;;;;;;10.00;5.17;;;;;;;24.05;59.63;101361.59;5107995;28;20213;-62
2021/07/10 01:05:35;;;;;;;10.40;5.30;;;;;;;24.07;59.71;101359.03;5104708;28;20183;-62
2021/07/10 01:08:01;;;;;;;14.70;6.30;;;;;;;23.38;59.47;101260.63;5092015;28;20167;-62
2021/07/10 01:10:26;;;;;;;14.17;6.90;;;;;;;23.33;59.81;101283.97;5108444;28;20197;-62
2021/07/10 01:12:54;;;;;;;9.00;5.13;;;;;;;23.84;60.16;101374.31;5091456;28;20174;-62
2021/07/10 01:15:23;;;;;;;8.30;5.70;;;;;;;23.68;60.20;101352.34;5093641;28;20725;-62
2021/07/10 01:17:48;;;;;;;9.53;5.63;;;;;;;23.71;60.51;101374.00;5090340;28;20174;-62
2021/07/10 01:20:20;;;;;;;13.77;5.80;;;;;;;23.66;60.66;101363.41;5088767;28;20233;-62
2021/07/10 01:22:46;;;;;;;11.93;5.80;;;;;;;23.63;60.72;101357.97;5089566;28;20187;-62
2021/07/10 01:25:15;;;;;;;10.17;5.83;;;;;;;23.59;61.14;101363.13;5091379;28;20167;-62
2021/07/10 01:27:40;;;;;;;11.13;5.83;;;;;;;23.60;61.16;101364.66;5104331;28;20266;-62
2021/07/10 01:30:09;;;;;;;9.13;5.77;;;;;;;23.10;60.67;101267.34;5071406;28;20261;-62
2021/07/10 01:32:36;;;;;;;10.27;5.70;;;;;;;23.20;60.00;101277.22;5089483;28;20171;-62
2021/07/10 01:35:03;;;;;;;10.40;5.63;;;;;;;23.78;59.60;101359.38;5086254;28;20187;-62
2021/07/10 01:37:29;;;;;;;11.33;5.93;;;;;;;23.80;59.33;101373.03;5081490;28;20179;-62
2021/07/10 01:39:54;;;;;;;15.00;5.90;;;;;;;23.72;60.06;101381.19;5090207;28;20181;-62
2021/07/10 01:42:20;;;;;;;8.30;5.73;;;;;;;23.78;60.15;101379.19;5089530;28;20203;-62
2021/07/10 01:44:47;;;;;;;9.70;5.60;;;;;;;23.63;60.92;101380.59;5071840;28;20197;-62
2021/07/10 01:47:13;;;;;;;15.30;5.90;;;;;;;23.67;60.80;101398.91;5089159;28;20648;-62
2021/07/10 01:49:38;;;;;;;15.27;5.50;;;;;;;23.62;61.09;101376.25;5089099;28;20216;-62
2021/07/10 01:52:04;;;;;;;9.03;5.47;;;;;;;23.76;60.51;101383.78;5089958;28;20204;-62
2021/07/10 01:54:30;;;;;;;9.13;5.50;;;;;;;23.86;59.81;101390.81;5089218;28;20179;-62
2021/07/10 01:56:56;;;;;;;11.73;5.60;;;;;;;23.09;59.44;101262.97;5090172;28;20672;-62
2021/07/10 01:59:21;;;;;;;9.60;5.10;;;;;;;23.93;59.09;101385.47;5088883;28;20179;-62
2021/07/10 02:01:48;;;;;;;12.40;5.57;;;;;;;23.99;59.25;101386.28;5095558;28;20198;-62
2021/07/10 02:04:15;;;;;;;15.93;5.57;;;;;;;23.65;58.59;101324.31;5099845;28;20179;-61
2021/07/10 02:06:43;;;;;;;13.53;5.60;;;;;;;24.12;58.43;101391.50;5089857;28;20181;-62
2021/07/10 02:09:09;;;;;;;12.13;5.60;;;;;;;24.15;58.21;101382.75;5089398;28;20179;-62
2021/07/10 02:11:35;;;;;;;10.80;5.47;;;;;;;24.27;58.13;101383.56;5089492;28;20599;-62
2021/07/10 02:14:01;;;;;;;15.33;5.43;;;;;;;24.19;57.90;101371.16;5088662;28;20270;-62
2021/07/10 02:16:26;;;;;;;9.50;5.23;;;;;;;24.34;58.30;101374.56;5089968;28;20286;-62
2021/07/10 02:18:52;;;;;;;10.60;5.20;;;;;;;24.41;57.75;101371.28;5089258;28;20752;-62
2021/07/10 02:21:18;;;;;;;9.17;5.23;;;;;;;24.45;57.60;101374.63;5101872;27;20223;-62
2021/07/10 02:23:44;;;;;;;10.27;5.07;;;;;;;24.13;57.65;101314.53;5119921;28;20185;-62
2021/07/10 02:26:09;;;;;;;9.50;4.80;;;;;;;24.51;57.38;101373.34;5119260;28;20261;-62
2021/07/10 02:28:34;;;;;;;10.40;5.00;;;;;;;24.46;56.80;101362.78;5110026;28;20251;-62
2021/07/10 02:31:00;;;;;;;10.23;4.93;;;;;;;24.59;56.54;101379.31;5110271;28;20182;-61
2021/07/10 02:33:25;;;;;;;8.53;4.93;;;;;;;24.55;56.34;101370.25;5114054;28;20182;-62
2021/07/10 02:35:51;;;;;;;11.13;5.13;;;;;;;24.46;56.78;101364.84;5113666;27;20214;-62
2021/07/10 02:38:17;;;;;;;9.50;5.03;;;;;;;24.63;56.44;101383.47;5124708;27;20170;-62
2021/07/10 02:40:42;;;;;;;12.80;5.03;;;;;;;24.69;56.80;101386.31;5120088;27;20239;-62
2021/07/10 02:43:08;;;;;;;11.00;5.87;;;;;;;24.61;57.30;101388.09;5113261;28;20202;-62
2021/07/10 02:45:35;;;;;;;10.40;5.90;;;;;;;24.53;57.64;101387.81;5094483;28;20190;-62
2021/07/10 02:48:01;;;;;;;11.43;5.63;;;;;;;24.43;57.99;101374.34;5121489;27;20268;-62
2021/07/10 02:50:27;;;;;;;10.37;5.77;;;;;;;24.44;58.23;101367.41;5126365;27;20177;-62
2021/07/10 02:52:54;;;;;;;10.73;5.90;;;;;;;24.40;58.38;101373.31;5132150;27;20165;-63
2021/07/10 02:55:21;;;;;;;9.70;6.20;;;;;;;24.33;58.59;101367.38;5113221;28;20174;-62
2021/07/10 02:57:46;;;;;;;9.87;5.67;;;;;;;24.15;58.31;101356.50;5112178;28;20239;-62
2021/07/10 03:00:15;;;;;;;10.53;5.90;;;;;;;24.24;58.66;101359.09;5122509;27;20193;-62
2021/07/10 03:02:41;;;;;;;11.03;6.23;;;;;;;23.60;58.55;101259.97;5125353;27;20483;-62
2021/07/10 03:05:07;;;;;;;11.20;6.17;;;;;;;24.29;58.62;101366.84;5112980;28;20455;-62
2021/07/10 03:07:37;;;;;;;11.47;6.10;;;;;;;24.14;59.55;101371.91;5112384;28;20231;-62
2021/07/10 03:10:05;;;;;;;11.33;6.13;;;;;;;23.91;60.17;101379.53;5112192;28;20183;-62
2021/07/10 03:12:30;;;;;;;7.60;5.83;;;;;;;23.89;60.69;101384.94;5104127;28;20643;-62
2021/07/10 03:14:56;;;;;;;8.83;5.80;;;;;;;23.86;60.78;101385.16;5128661;27;20177;-62
2021/07/10 03:17:21;;;;;;;9.47;6.17;;;;;;;23.88;59.98;101386.19;5115527;27;20182;-62
2021/07/10 03:19:47;;;;;;;8.17;6.13;;;;;;;23.93;59.70;101376.19;5112193;28;20557;-62
2021/07/10 03:22:13;;;;;;;11.90;5.43;;;;;;;23.97;59.60;101385.22;5111032;28;20214;-62
2021/07/10 03:24:39;;;;;;;8.60;5.80;;;;;;;23.62;59.51;101328.13;5126977;27;20193;-62
2021/07/10 03:27:05;;;;;;;13.30;5.97;;;;;;;23.87;60.19;101381.03;5129710;27;20669;-62
2021/07/10 03:29:30;;;;;;;8.70;5.87;;;;;;;23.46;60.74;101328.81;5126666;27;20210;-62
2021/07/10 03:31:55;;;;;;;10.57;6.10;;;;;;;23.68;60.51;101346.69;5112641;28;20174;-62
2021/07/10 03:34:21;;;;;;;15.93;6.40;;;;;;;23.86;60.14;101391.59;5111648;28;20216;-62
2021/07/10 03:36:46;;;;;;;8.80;5.97;;;;;;;23.94;59.68;101392.69;5131102;27;20189;-63
2021/07/10 03:39:12;;;;;;;11.60;5.73;;;;;;;24.03;59.81;101400.97;5120176;27;20224;-62
2021/07/10 03:41:37;;;;;;;11.07;5.67;;;;;;;24.10;59.67;101394.06;5111781;28;20697;-62
2021/07/10 03:44:03;;;;;;;9.67;5.87;;;;;;;24.20;58.94;101396.16;5110684;28;20223;-62
2021/07/10 03:46:28;;;;;;;9.17;5.60;;;;;;;24.29;59.30;101401.63;5112420;28;20239;-62
2021/07/10 03:48:54;;;;;;;12.10;6.20;;;;;;;24.38;58.88;101397.78;5114827;27;20193;-62
2021/07/10 03:51:22;;;;;;;13.33;6.00;;;;;;;24.52;58.70;101399.63;5130798;27;20228;-62
2021/07/10 03:53:47;;;;;;;12.23;5.57;;;;;;;24.59;57.82;101408.44;5111858;27;20238;-62
2021/07/10 03:56:14;;;;;;;12.33;5.47;;;;;;;24.63;58.32;101409.00;5111048;28;20618;-62
2021/07/10 03:58:40;;;;;;;11.10;5.33;;;;;;;24.72;57.72;101408.72;5111898;28;20178;-62
2021/07/10 04:01:05;;;;;;;15.73;5.83;;;;;;;24.83;57.10;101411.59;5123708;27;20182;-62
2021/07/10 04:03:31;;;;;;;12.10;5.60;;;;;;;24.90;56.48;101413.94;5132623;27;20334;-62
2021/07/10 04:05:56;;;;;;;10.73;5.70;;;;;;;24.98;56.91;101408.53;5123604;27;20192;-62
2021/07/10 04:08:22;;;;;;;12.43;5.47;;;;;;;25.12;57.14;101416.81;5111717;28;20174;-62
2021/07/10 04:10:48;;;;;;;11.00;5.70;;;;;;;24.51;57.09;101310.25;5112384;27;20745;-62
2021/07/10 04:13:14;;;;;;;12.43;5.73;;;;;;;24.95;56.88;101404.66;5131249;27;20210;-62
2021/07/10 04:15:41;;;;;;;8.33;5.67;;;;;;;25.07;55.98;101428.16;5117764;27;20178;-62
2021/07/10 04:18:07;;;;;;;9.27;5.27;;;;;;;25.13;55.93;101426.84;5111508;28;20188;-62
2021/07/10 04:20:33;;;;;;;9.33;5.77;;;;;;;25.09;55.74;101429.19;5110020;28;20679;-62
2021/07/10 04:22:58;;;;;;;12.57;5.80;;;;;;;24.90;56.42;101427.34;5114654;27;20265;-62
2021/07/10 04:25:24;;;;;;;7.93;5.63;;;;;;;24.90;56.78;101427.34;5096922;27;20261;-62
2021/07/10 04:27:49;;;;;;;9.90;5.77;;;;;;;24.94;56.92;101425.81;5129310;27;20182;-62
2021/07/10 04:30:18;;;;;;;12.40;5.87;;;;;;;25.15;56.73;101427.13;5110801;28;20210;-62
2021/07/10 04:32:43;;;;;;;8.70;5.97;;;;;;;24.93;56.03;101424.25;5110526;28;20181;-62
2021/07/10 04:35:10;;;;;;;12.57;5.80;;;;;;;25.02;56.33;101429.69;5115838;27;20594;-62
2021/07/10 04:37:36;;;;;;;13.10;6.10;;;;;;;24.96;56.66;101448.75;5128005;27;20222;-62
2021/07/10 04:40:04;;;;;;;12.27;6.40;;;;;;;24.91;57.00;101409.03;5129012;27;20187;-62
2021/07/10 04:42:29;;;;;;;9.93;5.90;;;;;;;25.37;56.09;101432.84;5119537;27;20205;-62
2021/07/10 04:44:55;;;;;;;10.33;5.87;;;;;;;25.26;55.28;101395.16;5111226;28;20596;-62
2021/07/10 04:47:21;;;;;;;11.33;5.63;;;;;;;25.80;54.53;101447.53;5112274;27;20269;-62
2021/07/10 04:49:47;;;;;;;8.20;5.70;;;;;;;25.72;53.66;101432.31;5131031;27;20193;-62
2021/07/10 04:52:13;;;;;;;18.47;6.20;;;;;;;25.90;53.48;101449.56;5113010;27;20174;-62
2021/07/10 04:54:38;;;;;;;13.20;6.73;;;;;;;25.79;53.76;101435.38;5110862;28;20175;-62
2021/07/10 04:57:04;;;;;;;8.70;6.03;;;;;;;25.54;54.16;101433.59;5110119;28;20652;-62
2021/07/10 04:59:30;;;;;;;11.53;6.07;;;;;;;25.43;55.17;101432.84;5114725;27;20542;-62
2021/07/10 05:01:55;;;;;;;10.33;6.80;;;;;;;25.59;55.04;101421.47;5118968;27;20242;-62
2021/07/10 05:04:21;;;;;;;11.73;6.73;;;;;;;25.45;54.84;101433.09;5125217;27;20622;-63
2021/07/10 05:06:46;;;;;;;10.30;7.10;;;;;;;25.48;54.94;101432.84;5092754;28;20175;-62
2021/07/10 05:09:12;;;;;;;11.97;7.17;;;;;;;25.65;54.84;101427.16;5109822;28;20681;-62
2021/07/10 05:11:37;;;;;;;11.30;6.63;;;;;;;25.66;54.91;101429.47;5118870;27;20220;-62
2021/07/10 05:14:03;;;;;;;13.20;6.67;;;;;;;25.76;54.85;101433.59;5128283;27;20181;-62
2021/07/10 05:16:29;;;;;;;12.77;6.47;;;;;;;25.84;54.62;101433.84;5131446;27;20600;-62
2021/07/10 05:18:54;;;;;;;11.70;6.40;;;;;;;26.03;54.43;101432.00;5116549;27;20178;-62
2021/07/10 05:21:22;;;;;;;11.40;6.13;;;;;;;26.33;54.02;101432.97;5110223;28;20332;-62
2021/07/10 05:23:47;;;;;;;9.77;6.80;;;;;;;26.47;53.96;101438.31;5119070;27;20181;-62
2021/07/10 05:26:13;;;;;;;12.13;6.30;;;;;;;26.32;54.07;101439.94;5131018;28;20189;-62
2021/07/10 05:28:38;;;;;;;9.17;6.27;;;;;;;26.61;53.72;101442.94;5110646;28;20181;-62
2021/07/10 05:31:04;;;;;;;12.23;6.47;;;;;;;26.61;53.20;101403.13;5091118;28;20185;-62
2021/07/10 05:33:30;;;;;;;10.20;6.47;;;;;;;26.79;52.82;101390.38;5111005;28;20529;-62
2021/07/10 05:35:55;;;;;;;14.37;7.03;;;;;;;27.16;51.00;101434.09;5116133;28;20178;-63
2021/07/10 05:38:21;;;;;;;13.03;7.13;;;;;;;27.19;51.04;101446.50;5121705;28;20189;-62
2021/07/10 05:40:46;;;;;;;12.27;6.80;;;;;;;27.27;50.99;101444.66;5121477;28;20227;-63
2021/07/10 05:43:12;;;;;;;10.20;6.60;;;;;;;27.07;51.75;101439.34;5110202;28;20206;-62
2021/07/10 05:45:38;;;;;;;13.97;7.20;;;;;;;27.08;51.63;101440.88;5109512;28;20231;-62
2021/07/10 05:48:04;;;;;;;14.93;6.73;;;;;;;27.10;51.80;101444.72;5110145;28;20720;-62
2021/07/10 05:50:30;;;;;;;10.90;7.70;;;;;;;27.00;52.09;101437.81;5109187;28;20643;-63
2021/07/10 05:52:55;;;;;;;12.27;6.93;;;;;;;26.94;52.21;101437.09;5110421;28;20176;-62
2021/07/10 05:55:21;;;;;;;10.77;6.50;;;;;;;26.58;52.08;101372.16;5109789;28;20247;-62
2021/07/10 05:57:47;;;;;;;11.43;6.93;;;;;;;27.10;51.55;101446.78;5110493;28;20597;-62
2021/07/10 06:00:13;;;;;;;12.33;6.80;;;;;;;27.14;51.84;101450.13;5108894;28;20509;-63
2021/07/10 06:02:39;;;;;;;15.17;7.03;;;;;;;27.43;51.61;101446.59;5121122;28;20201;-63
2021/07/10 06:05:06;;;;;;;13.47;7.17;;;;;;;27.56;51.35;101452.41;5108209;28;20178;-62
2021/07/10 06:07:32;;;;;;;10.60;6.83;;;;;;;26.97;51.06;101389.75;5102963;27;20222;-62
2021/07/10 06:09:58;;;;;;;11.73;6.87;;;;;;;27.26;51.36;101445.94;5120250;27;20651;-63
2021/07/10 06:12:23;;;;;;;12.63;7.07;;;;;;;27.42;51.36;101448.66;5108999;28;20183;-62
2021/07/10 06:14:49;;;;;;;10.33;7.17;;;;;;;27.59;51.06;101454.22;5108946;28;20184;-62
2021/07/10 06:17:15;;;;;;;13.73;7.20;;;;;;;27.02;51.03;101354.81;5107888;28;20261;-62
2021/07/10 06:19:41;;;;;;;11.30;6.77;;;;;;;26.91;50.93;101374.75;5110146;28;20747;-62
2021/07/10 06:22:06;;;;;;;11.57;6.87;;;;;;;26.72;50.98;101340.50;5110414;28;20209;-62
2021/07/10 06:24:32;;;;;;;11.37;7.03;;;;;;;27.55;51.31;101459.44;5109848;27;20212;-62
2021/07/10 06:26:57;;;;;;;12.47;7.47;;;;;;;27.38;51.18;101453.84;5114881;27;20191;-62
2021/07/10 06:29:23;;;;;;;9.77;7.60;;;;;;;27.44;51.08;101443.19;5097078;27;20647;-62
2021/07/10 06:31:49;;;;;;;12.60;8.27;;;;;;;27.69;51.48;101453.34;5107243;27;20554;-62
2021/07/10 06:34:14;;;;;;;13.60;8.00;;;;;;;27.13;50.34;101380.31;5111342;27;20205;-62
2021/07/10 06:36:41;;;;;;;13.80;7.27;;;;;;;27.62;50.98;101450.28;5106234;28;20585;-61
2021/07/10 06:39:06;;;;;;;11.73;7.43;;;;;;;26.86;51.17;101333.69;5108633;27;20186;-62
2021/07/10 06:41:32;;;;;;;12.37;7.53;;;;;;;27.53;51.63;101462.78;5086658;27;20779;-62
2021/07/10 06:43:58;;;;;;;11.00;7.30;;;;;;;27.79;51.36;101474.50;5114340;27;20182;-62
2021/07/10 06:46:24;;;;;;;10.87;7.67;;;;;;;27.93;51.31;101467.63;5105164;28;20185;-62
2021/07/10 06:48:49;;;;;;;9.90;8.10;;;;;;;27.97;51.07;101468.13;5113610;27;20269;-62
2021/07/10 06:51:16;;;;;;;10.73;7.93;;;;;;;27.90;51.14;101473.63;5113217;27;20799;-62
2021/07/10 06:53:43;;;;;;;14.03;7.80;;;;;;;28.12;51.10;101476.25;5074847;27;20195;-62
2021/07/10 06:56:09;;;;;;;12.00;8.10;;;;;;;28.16;51.04;101454.72;5089630;27;20667;-62
2021/07/10 06:58:34;;;;;;;13.68;7.97;;;;;;;28.07;50.50;101429.44;5089253;27;20178;-62
2021/07/10 07:01:01;;;;;;;12.38;7.53;;;;;;;28.49;50.29;101468.59;5091673;27;20181;-62
2021/07/10 07:03:27;;;;;;;11.43;7.65;;;;;;;28.49;49.91;101462.91;5092384;27;20273;-61
2021/07/10 07:05:52;;;;;;;11.02;7.30;;;;;;;28.63;48.80;101466.63;5096601;27;20317;-62
2021/07/10 07:08:18;;;;;;;10.68;7.40;;;;;;;28.78;48.87;101459.16;5106850;28;20249;-61
2021/07/10 07:10:43;;;;;;;14.40;7.78;;;;;;;28.88;48.69;101465.25;5105922;27;20182;-62
2021/07/10 07:13:09;;;;;;;11.70;7.22;;;;;;;28.87;48.43;101452.28;5106998;27;20170;-61
2021/07/10 07:15:35;;;;;;;13.93;7.28;;;;;;;29.01;48.67;101463.25;5103480;27;20178;-62
2021/07/10 07:18:00;;;;;;;12.82;7.20;;;;;;;28.97;48.29;101471.34;5103401;28;20258;-62
2021/07/10 07:20:26;;;;;;;14.95;7.65;;;;;;;28.46;48.67;101355.63;5104358;28;20228;-62
2021/07/10 07:22:52;;;;;;;12.77;7.63;;;;;;;29.06;49.06;101433.88;5104522;28;20667;-61
2021/07/10 07:25:20;;;;;;;10.85;7.13;;;;;;;29.33;48.55;101457.59;5104756;28;20188;-62
2021/07/10 07:27:47;;;;;;;11.55;7.60;;;;;;;29.34;48.21;101465.63;5105720;28;20678;-62
2021/07/10 07:30:13;;;;;;;12.32;7.78;;;;;;;29.06;48.88;101461.63;5105364;28;20185;-62
2021/07/10 07:32:40;;;;;;;11.43;7.30;;;;;;;29.07;49.15;101466.03;5099458;27;20182;-62
2021/07/10 07:35:07;;;;;;;12.40;7.35;;;;;;;29.26;49.42;101464.69;5095516;28;20186;-62
2021/07/10 07:37:32;;;;;;;12.38;6.40;;;;;;;29.11;48.41;101460.78;5105700;27;20226;-61
2021/07/10 07:39:58;;;;;;;8.45;6.03;;;;;;;28.38;47.59;101360.41;5090912;28;20181;-61
2021/07/10 07:42:24;;;;;;;9.77;5.78;;;;;;;29.15;47.04;101466.94;5103685;27;20649;-62
2021/07/10 07:44:50;;;;;;;11.40;6.38;;;;;;;28.99;47.18;101470.81;5106932;27;20177;-62
2021/07/10 07:47:17;;;;;;;14.00;5.90;;;;;;;29.18;48.12;101468.72;5100727;27;20506;-62
2021/07/10 07:49:44;;;;;;;11.70;6.30;;;;;;;29.14;46.93;101466.19;5087968;28;20671;-62
2021/07/10 07:52:10;;;;;;;12.30;6.38;;;;;;;29.08;47.21;101468.34;5095819;28;20703;-62
2021/07/10 07:54:35;;;;;;;11.52;6.38;;;;;;;28.82;47.17;101401.78;5104162;27;20206;-62
2021/07/10 07:57:02;;;;;;;9.32;6.70;;;;;;;29.36;46.65;101462.19;5107731;27;20663;-62
2021/07/10 07:59:28;;;;;;;10.52;6.13;;;;;;;29.62;46.99;101462.31;5105433;27;20292;-62
2021/07/10 08:01:53;;;;;;;9.45;5.82;;;;;;;28.70;46.72;101312.75;5105914;27;20276;-62
2021/07/10 08:04:19;;;;;;;8.38;6.00;;;;;;;29.76;46.90;101458.97;5106163;28;20178;-61
2021/07/10 08:06:45;;;;;;;12.63;6.25;;;;;;;30.03;46.23;101454.81;5104512;27;20198;-62
2021/07/10 08:09:11;;;;;;;9.25;6.00;;;;;;;30.27;46.01;101456.72;5106977;27;20212;-62
2021/07/10 08:11:36;;;;;;;8.27;5.90;;;;;;;30.03;46.71;101460.53;5103967;28;20611;-62
2021/07/10 08:14:03;;;;;;;11.18;6.03;;;;;;;29.66;46.36;101379.94;5104654;28;20189;-62
2021/07/10 08:16:28;;;;;;;10.38;6.05;;;;;;;29.33;46.23;101315.59;5103936;28;20253;-62
2021/07/10 08:18:54;;;;;;;10.10;6.10;;;;;;;30.40;45.91;101448.91;5102881;27;20266;-62
2021/07/10 08:21:20;;;;;;;12.10;6.28;;;;;;;30.33;45.09;101458.16;5098056;28;20234;-62
2021/07/10 08:23:46;;;;;;;6.63;5.90;;;;;;;30.05;45.43;101462.84;5095194;28;20178;-62
2021/07/10 08:26:12;;;;;;;11.30;5.90;;;;;;;30.09;44.82;101420.44;5095734;27;20549;-62
2021/07/10 08:28:38;;;;;;;7.30;5.30;;;;;;;30.56;44.22;101455.63;5101579;28;20628;-62
2021/07/10 08:31:04;;;;;;;9.02;5.78;;;;;;;30.05;44.23;101460.00;5104330;27;20182;-62
2021/07/10 08:33:29;;;;;;;10.50;5.72;;;;;;;29.75;45.57;101428.84;5104334;28;20175;-61
2021/07/10 08:36:13;;;;;;;7.75;5.38;;;;;;;30.01;46.00;101457.47;5102684;28;20655;-62
2021/07/10 08:38:39;;;;;;;10.20;5.75;;;;;;;29.71;45.63;101447.63;5103595;28;20182;-61
2021/07/10 08:41:09;;;;;;;8.70;5.40;;;;;;;29.84;45.62;101457.00;5105117;27;20564;-62
2021/07/10 08:43:35;;;;;;;12.93;6.07;;;;;;;29.83;45.90;101464.03;5102577;28;20189;-62
2021/07/10 08:46:03;;;;;;;8.10;5.80;;;;;;;29.03;46.19;101340.00;5087563;27;20185;-62
2021/07/10 08:48:29;;;;;;;9.23;5.80;;;;;;;29.74;44.87;101458.72;5078046;28;20234;-62
2021/07/10 08:50:57;;;;;;;10.65;5.47;;;;;;;29.65;45.89;101416.31;5090082;28;20782;-62
2021/07/10 08:53:23;;;;;;;8.63;5.50;;;;;;;29.94;45.64;101445.91;5087818;28;20185;-62
2021/07/10 08:55:50;;;;;;;10.20;5.68;;;;;;;30.13;45.06;101435.16;5088823;28;20189;-62
2021/07/10 08:58:19;;;;;;;10.00;5.03;;;;;;;30.09;44.42;101444.03;5092237;28;20187;-62
2021/07/10 09:00:46;;;;;;;8.93;5.13;;;;;;;30.09;44.61;101441.19;5099336;28;20647;-62
2021/07/10 09:03:12;;;;;;;22.85;6.13;;;;;;;29.81;44.50;101369.53;5105578;28;20632;-62
2021/07/10 09:05:38;;;;;;;12.70;5.38;;;;;;;30.09;43.08;101395.44;5108527;28;20178;-62
2021/07/10 09:08:24;;;;;;;13.40;5.20;;;;;;;30.60;42.98;101441.75;5106193;28;20214;-62
2021/07/10 09:10:57;;;;;;;10.05;5.10;;;;;;;30.72;42.28;101438.13;5108836;28;20181;-62
2021/07/10 09:13:43;;;;;;;8.60;5.13;;;;;;;30.53;43.79;101437.47;5111204;27;20634;-62
2021/07/10 09:16:14;;;;;;;12.98;5.53;;;;;;;30.52;43.83;101423.72;5097319;28;20178;-62
2021/07/10 09:18:48;;;;;;;11.50;5.70;;;;;;;30.80;43.41;101429.59;5112246;27;20186;-61
2021/07/10 09:21:40;;;;;;;10.38;5.20;;;;;;;31.04;42.71;101432.97;5097266;28;20218;-62
2021/07/10 09:24:13;;;;;;;12.23;5.22;;;;;;;30.73;41.65;101438.88;5099605;28;20241;-62
2021/07/10 09:26:48;;;;;;;11.63;5.47;;;;;;;30.93;42.08;101427.50;5101721;28;20182;-62
2021/07/10 09:29:18;;;;;;;8.63;4.85;;;;;;;30.95;42.26;101395.44;5097003;28;20253;-62
2021/07/10 09:31:56;;;;;;;10.60;4.85;;;;;;;31.16;41.24;101402.72;5100893;28;20269;-62
2021/07/10 09:34:34;;;;;;;12.20;4.50;;;;;;;31.27;40.99;101416.78;5093019;28;20170;-62
2021/07/10 09:37:04;;;;;;;11.48;4.45;;;;;;;31.15;41.08;101414.72;5112396;28;20166;-62
2021/07/10 09:39:32;;;;;;;8.85;4.60;;;;;;;31.52;39.75;101418.00;5108573;28;20198;-62
2021/07/10 09:41:59;;;;;;;5.78;4.20;;;;;;;32.02;39.31;101416.66;5112577;28;20257;-63
2021/07/10 09:44:25;;;;;;;10.07;4.45;;;;;;;32.21;39.40;101406.47;5112231;28;20178;-62
2021/07/10 09:46:51;;;;;;;6.82;3.90;;;;;;;32.75;37.55;101417.66;5111875;28;20186;-62
2021/07/10 09:49:21;;;;;;;5.15;4.00;;;;;;;32.67;36.83;101402.53;5111908;28;20209;-62
2021/07/10 09:51:47;;;;;;;5.63;4.10;;;;;;;32.84;37.47;101407.75;5106153;28;20219;-63
2021/07/10 09:54:13;;;;;;;8.20;3.97;;;;;;;33.01;36.64;101385.78;5100416;28;20713;-62
2021/07/10 09:57:00;;;;;;;8.23;4.05;;;;;;;33.33;36.49;101365.91;5112308;28;20182;-63
2021/07/10 09:59:26;;;;;;;7.85;4.35;;;;;;;33.96;35.30;101398.47;5111701;28;20190;-62
2021/07/10 10:01:52;;;;;;;9.50;4.20;;;;;;;33.98;34.66;101356.28;5114451;27;20216;-63
2021/07/10 10:04:32;;;;;;;6.82;3.85;;;;;;;34.57;34.60;101394.09;5110307;28;20651;-63
2021/07/10 10:07:00;;;;;;;9.68;4.43;;;;;;;34.67;33.46;101386.38;5108114;28;20177;-63
2021/07/10 10:09:30;;;;;;;9.00;4.05;;;;;;;34.65;33.15;101391.97;5111790;28;20189;-63
2021/07/10 10:11:59;;;;;;;7.63;4.20;;;;;;;34.91;33.83;101395.09;5109823;28;20711;-63
2021/07/10 10:14:33;;;;;;;13.55;4.35;;;;;;;34.86;33.54;101378.06;5110731;27;20653;-63
2021/07/10 10:16:59;;;;;;;9.55;3.88;;;;;;;34.58;32.81;101376.25;5102272;28;20731;-63
2021/07/10 10:19:27;;;;;;;6.13;3.35;;;;;;;34.79;32.75;101381.72;5110305;28;20721;-63
2021/07/10 10:21:55;;;;;;;8.90;3.80;;;;;;;34.82;33.51;101378.47;5093091;28;20230;-63
2021/07/10 10:24:22;;;;;;;8.35;3.65;;;;;;;34.45;33.32;101378.63;5112133;28;20209;-63
2021/07/10 10:26:48;;;;;;;5.38;3.40;;;;;;;34.43;33.68;101375.53;5115202;27;20195;-63
2021/07/10 10:29:16;;;;;;;9.80;3.45;;;;;;;34.17;33.89;101373.13;5111192;27;20572;-62
2021/07/10 10:31:43;;;;;;;8.68;3.60;;;;;;;33.97;33.46;101339.63;5105109;28;20181;-62
2021/07/10 10:34:09;;;;;;;6.45;3.03;;;;;;;34.03;31.67;101314.31;5112643;28;20174;-62
2021/07/10 10:36:36;;;;;;;7.40;3.17;;;;;;;34.48;31.87;101374.56;5115206;27;20745;-63
2021/07/10 10:39:06;;;;;;;9.32;3.40;;;;;;;34.65;31.89;101371.81;5130665;27;20551;-63
2021/07/10 10:41:32;;;;;;;6.32;3.50;;;;;;;34.53;32.88;101388.75;5104780;28;20301;-63
2021/07/10 10:43:59;;;;;;;7.18;3.30;;;;;;;34.18;33.32;101312.13;5110257;28;20190;-63
2021/07/10 10:46:25;;;;;;;5.57;3.70;;;;;;;34.59;33.28;101328.84;5112695;27;20243;-63
2021/07/10 10:48:52;;;;;;;6.18;3.40;;;;;;;34.76;32.21;101357.75;5105612;28;20186;-63
2021/07/10 10:51:32;;;;;;;6.68;3.70;;;;;;;34.86;32.69;101352.88;5111211;27;20182;-63
2021/07/10 10:54:16;;;;;;;7.88;3.25;;;;;;;34.62;31.46;101355.69;5112553;28;20639;-63
2021/07/10 10:56:42;;;;;;;7.22;3.33;;;;;;;34.53;33.04;101357.09;5112142;28;20178;-63
2021/07/10 10:59:32;;;;;;;9.00;3.40;;;;;;;34.60;31.29;101355.53;5111647;28;20185;-63
2021/07/10 11:01:57;;;;;;;9.70;3.53;;;;;;;34.51;32.28;101354.03;5123404;27;20712;-63
2021/07/10 11:04:44;;;;;;;5.57;3.17;;;;;;;35.04;31.86;101345.84;5119121;27;20181;-63
2021/07/10 11:07:36;;;;;;;8.18;3.20;;;;;;;34.83;29.94;101345.44;5131973;27;20165;-62
2021/07/10 11:10:10;;;;;;;5.13;3.22;;;;;;;34.78;31.30;101348.53;5112400;27;20167;-63
2021/07/10 11:12:48;;;;;;;5.65;3.05;;;;;;;34.86;30.69;101341.34;5111736;28;20205;-63
2021/07/10 11:15:27;;;;;;;5.95;3.10;;;;;;;35.35;31.36;101338.53;5130593;27;20226;-62
2021/07/10 11:18:06;;;;;;;5.78;3.20;;;;;;;35.78;30.40;101337.94;5132701;27;20230;-63
2021/07/10 11:20:49;;;;;;;10.32;3.30;;;;;;;35.64;30.40;101336.72;5132035;27;20221;-63